Terminal Aerodrome Forecast
Issued by NWS Charleston, WV

Home | Current Version | Previous Version | Text Only | Print | Product List | Glossary On
Versions: 1 2 3 4 5 6 7 8 9 10 11 12 13 14 15 16 17 18 19 20 21 22
288
FTUS41 KRLX 301731
TAFEKN
TAF
KEKN 301731Z 3018/3118 36007KT P6SM FEW040
     FM301900 33005KT P6SM BKN045
     FM310500 00000KT 4SM HZ BKN080
     FM310600 00000KT 1/2SM FG VV001
     FM311100 00000KT 1SM BR FEW001
     FM311200 00000KT 2SM BR SCT003
     FM311300 00000KT P6SM SCT060=

USA.gov is the U.S. government's official web portal to all federal, state and local government web resources and services.